sensor_id;sensor_type;location;lat;lon;timestamp;P1;durP1;ratioP1;P2;durP2;ratioP2
76123;SDS011;65173;48.066;20.976;2024-02-04T00:01:29;21.40;;;12.27;;
76123;SDS011;65173;48.066;20.976;2024-02-04T00:04:31;30.98;;;14.30;;
76123;SDS011;65173;48.066;20.976;2024-02-04T00:07:34;29.20;;;15.15;;
76123;SDS011;65173;48.066;20.976;2024-02-04T00:10:37;23.77;;;12.40;;
76123;SDS011;65173;48.066;20.976;2024-02-04T00:13:39;33.03;;;12.55;;
76123;SDS011;65173;48.066;20.976;2024-02-04T00:16:41;11.30;;;7.28;;
76123;SDS011;65173;48.066;20.976;2024-02-04T00:19:43;26.67;;;9.90;;
76123;SDS011;65173;48.066;20.976;2024-02-04T00:22:45;18.85;;;11.23;;
76123;SDS011;65173;48.066;20.976;2024-02-04T00:25:47;13.57;;;8.23;;
76123;SDS011;65173;48.066;20.976;2024-02-04T00:28:49;13.47;;;8.07;;
76123;SDS011;65173;48.066;20.976;2024-02-04T00:31:52;14.02;;;6.50;;
76123;SDS011;65173;48.066;20.976;2024-02-04T00:34:54;13.13;;;7.10;;
76123;SDS011;65173;48.066;20.976;2024-02-04T00:37:56;14.60;;;6.50;;
76123;SDS011;65173;48.066;20.976;2024-02-04T00:40:59;17.80;;;7.07;;
76123;SDS011;65173;48.066;20.976;2024-02-04T00:44:01;10.82;;;6.75;;
76123;SDS011;65173;48.066;20.976;2024-02-04T00:47:03;9.00;;;6.93;;
76123;SDS011;65173;48.066;20.976;2024-02-04T00:50:05;14.10;;;5.33;;
76123;SDS011;65173;48.066;20.976;2024-02-04T00:53:09;11.15;;;7.03;;
76123;SDS011;65173;48.066;20.976;2024-02-04T00:56:11;9.45;;;5.63;;
76123;SDS011;65173;48.066;20.976;2024-02-04T00:59:13;10.70;;;6.63;;
76123;SDS011;65173;48.066;20.976;2024-02-04T01:02:16;11.52;;;6.05;;
76123;SDS011;65173;48.066;20.976;2024-02-04T01:05:18;16.27;;;6.53;;
76123;SDS011;65173;48.066;20.976;2024-02-04T01:08:20;14.77;;;8.07;;
76123;SDS011;65173;48.066;20.976;2024-02-04T01:11:22;14.07;;;6.95;;
76123;SDS011;65173;48.066;20.976;2024-02-04T01:14:25;14.35;;;8.35;;
76123;SDS011;65173;48.066;20.976;2024-02-04T01:17:27;12.00;;;7.45;;
76123;SDS011;65173;48.066;20.976;2024-02-04T01:20:29;17.50;;;8.30;;
76123;SDS011;65173;48.066;20.976;2024-02-04T01:23:31;35.25;;;13.70;;
76123;SDS011;65173;48.066;20.976;2024-02-04T01:26:33;13.55;;;6.85;;
76123;SDS011;65173;48.066;20.976;2024-02-04T01:29:36;12.13;;;5.53;;
76123;SDS011;65173;48.066;20.976;2024-02-04T01:32:38;11.73;;;5.47;;
76123;SDS011;65173;48.066;20.976;2024-02-04T01:35:41;14.10;;;7.05;;
76123;SDS011;65173;48.066;20.976;2024-02-04T01:38:43;9.80;;;7.35;;
76123;SDS011;65173;48.066;20.976;2024-02-04T01:41:45;15.23;;;6.85;;
76123;SDS011;65173;48.066;20.976;2024-02-04T01:44:48;11.95;;;5.63;;
76123;SDS011;65173;48.066;20.976;2024-02-04T01:47:50;6.40;;;4.03;;
76123;SDS011;65173;48.066;20.976;2024-02-04T01:50:53;10.53;;;4.50;;
76123;SDS011;65173;48.066;20.976;2024-02-04T01:53:56;10.38;;;6.80;;
76123;SDS011;65173;48.066;20.976;2024-02-04T01:56:59;9.80;;;4.35;;
76123;SDS011;65173;48.066;20.976;2024-02-04T02:00:04;9.77;;;6.13;;
76123;SDS011;65173;48.066;20.976;2024-02-04T02:03:07;11.50;;;6.18;;
76123;SDS011;65173;48.066;20.976;2024-02-04T02:06:10;6.55;;;4.93;;
76123;SDS011;65173;48.066;20.976;2024-02-04T02:09:12;9.32;;;4.88;;
76123;SDS011;65173;48.066;20.976;2024-02-04T02:12:24;11.55;;;6.70;;
76123;SDS011;65173;48.066;20.976;2024-02-04T02:15:28;14.13;;;6.03;;
76123;SDS011;65173;48.066;20.976;2024-02-04T02:18:37;11.27;;;5.97;;
76123;SDS011;65173;48.066;20.976;2024-02-04T02:24:50;7.55;;;3.88;;
76123;SDS011;65173;48.066;20.976;2024-02-04T02:27:53;9.15;;;4.57;;
76123;SDS011;65173;48.066;20.976;2024-02-04T02:30:55;8.67;;;4.70;;
76123;SDS011;65173;48.066;20.976;2024-02-04T02:33:57;8.85;;;4.70;;
76123;SDS011;65173;48.066;20.976;2024-02-04T02:37:03;7.93;;;5.65;;
76123;SDS011;65173;48.066;20.976;2024-02-04T02:43:16;7.05;;;3.92;;
76123;SDS011;65173;48.066;20.976;2024-02-04T02:46:19;10.75;;;4.22;;
76123;SDS011;65173;48.066;20.976;2024-02-04T02:49:21;7.10;;;3.35;;
76123;SDS011;65173;48.066;20.976;2024-02-04T02:52:24;11.43;;;4.97;;
76123;SDS011;65173;48.066;20.976;2024-02-04T02:55:26;6.43;;;3.90;;
76123;SDS011;65173;48.066;20.976;2024-02-04T02:58:28;7.85;;;5.05;;
76123;SDS011;65173;48.066;20.976;2024-02-04T03:01:31;8.43;;;4.63;;
76123;SDS011;65173;48.066;20.976;2024-02-04T03:04:33;10.32;;;5.57;;
76123;SDS011;65173;48.066;20.976;2024-02-04T03:07:36;7.22;;;4.13;;
76123;SDS011;65173;48.066;20.976;2024-02-04T03:10:38;10.48;;;4.68;;
76123;SDS011;65173;48.066;20.976;2024-02-04T03:13:40;6.63;;;3.72;;
76123;SDS011;65173;48.066;20.976;2024-02-04T03:16:45;10.80;;;5.18;;
76123;SDS011;65173;48.066;20.976;2024-02-04T03:19:48;11.20;;;5.90;;
76123;SDS011;65173;48.066;20.976;2024-02-04T03:22:50;12.50;;;6.07;;
76123;SDS011;65173;48.066;20.976;2024-02-04T03:25:53;8.85;;;4.90;;
76123;SDS011;65173;48.066;20.976;2024-02-04T03:28:55;8.35;;;5.75;;
76123;SDS011;65173;48.066;20.976;2024-02-04T03:31:57;12.17;;;6.97;;
76123;SDS011;65173;48.066;20.976;2024-02-04T03:35:00;10.48;;;6.95;;
76123;SDS011;65173;48.066;20.976;2024-02-04T03:38:02;8.07;;;5.78;;
76123;SDS011;65173;48.066;20.976;2024-02-04T03:41:05;9.90;;;5.20;;
76123;SDS011;65173;48.066;20.976;2024-02-04T03:44:07;8.48;;;5.93;;
76123;SDS011;65173;48.066;20.976;2024-02-04T03:47:09;11.75;;;7.40;;
76123;SDS011;65173;48.066;20.976;2024-02-04T03:50:11;19.17;;;8.05;;
76123;SDS011;65173;48.066;20.976;2024-02-04T03:53:13;16.03;;;7.10;;
76123;SDS011;65173;48.066;20.976;2024-02-04T03:56:16;14.38;;;5.65;;
76123;SDS011;65173;48.066;20.976;2024-02-04T03:59:18;10.23;;;6.88;;
76123;SDS011;65173;48.066;20.976;2024-02-04T04:02:20;16.17;;;7.33;;
76123;SDS011;65173;48.066;20.976;2024-02-04T04:05:22;12.43;;;7.30;;
76123;SDS011;65173;48.066;20.976;2024-02-04T04:08:25;20.95;;;7.95;;
76123;SDS011;65173;48.066;20.976;2024-02-04T04:11:27;15.00;;;8.15;;
76123;SDS011;65173;48.066;20.976;2024-02-04T04:14:29;16.38;;;7.30;;
76123;SDS011;65173;48.066;20.976;2024-02-04T04:17:31;12.20;;;7.65;;
76123;SDS011;65173;48.066;20.976;2024-02-04T04:20:34;8.98;;;6.45;;
76123;SDS011;65173;48.066;20.976;2024-02-04T04:23:36;11.17;;;5.60;;
76123;SDS011;65173;48.066;20.976;2024-02-04T04:26:38;17.73;;;7.80;;
76123;SDS011;65173;48.066;20.976;2024-02-04T04:29:40;10.20;;;7.15;;
76123;SDS011;65173;48.066;20.976;2024-02-04T04:32:42;8.60;;;4.00;;
76123;SDS011;65173;48.066;20.976;2024-02-04T04:35:44;11.63;;;7.30;;
76123;SDS011;65173;48.066;20.976;2024-02-04T04:38:46;13.20;;;8.93;;
76123;SDS011;65173;48.066;20.976;2024-02-04T04:41:51;18.63;;;9.07;;
76123;SDS011;65173;48.066;20.976;2024-02-04T04:44:54;12.30;;;7.45;;
76123;SDS011;65173;48.066;20.976;2024-02-04T04:47:56;10.35;;;6.15;;
76123;SDS011;65173;48.066;20.976;2024-02-04T04:50:58;11.45;;;7.03;;
76123;SDS011;65173;48.066;20.976;2024-02-04T04:54:00;9.80;;;6.60;;
76123;SDS011;65173;48.066;20.976;2024-02-04T04:57:02;12.60;;;7.00;;
76123;SDS011;65173;48.066;20.976;2024-02-04T05:00:05;11.68;;;5.40;;
76123;SDS011;65173;48.066;20.976;2024-02-04T05:03:11;13.13;;;6.97;;
76123;SDS011;65173;48.066;20.976;2024-02-04T05:06:13;8.63;;;5.47;;
76123;SDS011;65173;48.066;20.976;2024-02-04T05:09:16;16.40;;;7.40;;
76123;SDS011;65173;48.066;20.976;2024-02-04T05:12:18;12.32;;;6.97;;
76123;SDS011;65173;48.066;20.976;2024-02-04T05:15:23;13.30;;;7.50;;
76123;SDS011;65173;48.066;20.976;2024-02-04T05:18:27;13.77;;;6.75;;
76123;SDS011;65173;48.066;20.976;2024-02-04T05:21:29;14.18;;;7.55;;
76123;SDS011;65173;48.066;20.976;2024-02-04T05:24:31;16.40;;;7.13;;
76123;SDS011;65173;48.066;20.976;2024-02-04T05:27:34;11.18;;;6.63;;
76123;SDS011;65173;48.066;20.976;2024-02-04T05:30:37;14.25;;;6.70;;
76123;SDS011;65173;48.066;20.976;2024-02-04T05:33:39;8.00;;;5.57;;
76123;SDS011;65173;48.066;20.976;2024-02-04T05:36:41;10.43;;;5.68;;
76123;SDS011;65173;48.066;20.976;2024-02-04T05:39:44;10.52;;;5.45;;
76123;SDS011;65173;48.066;20.976;2024-02-04T05:42:46;8.77;;;6.00;;
76123;SDS011;65173;48.066;20.976;2024-02-04T05:45:48;9.27;;;5.03;;
76123;SDS011;65173;48.066;20.976;2024-02-04T05:48:51;12.23;;;4.28;;
76123;SDS011;65173;48.066;20.976;2024-02-04T05:51:53;5.18;;;2.88;;
76123;SDS011;65173;48.066;20.976;2024-02-04T05:54:56;14.10;;;4.93;;
76123;SDS011;65173;48.066;20.976;2024-02-04T05:58:00;10.00;;;4.47;;
76123;SDS011;65173;48.066;20.976;2024-02-04T06:01:02;7.80;;;4.57;;
76123;SDS011;65173;48.066;20.976;2024-02-04T06:04:05;12.23;;;5.50;;
76123;SDS011;65173;48.066;20.976;2024-02-04T06:07:07;10.40;;;5.00;;
76123;SDS011;65173;48.066;20.976;2024-02-04T06:10:09;7.45;;;5.05;;
76123;SDS011;65173;48.066;20.976;2024-02-04T06:13:12;11.07;;;5.00;;
76123;SDS011;65173;48.066;20.976;2024-02-04T06:16:14;13.38;;;6.68;;
76123;SDS011;65173;48.066;20.976;2024-02-04T06:19:16;5.05;;;4.25;;
76123;SDS011;65173;48.066;20.976;2024-02-04T06:22:18;17.20;;;10.00;;
76123;SDS011;65173;48.066;20.976;2024-02-04T06:25:21;22.60;;;11.87;;
76123;SDS011;65173;48.066;20.976;2024-02-04T06:28:23;16.50;;;7.78;;
76123;SDS011;65173;48.066;20.976;2024-02-04T06:31:25;17.08;;;8.52;;
76123;SDS011;65173;48.066;20.976;2024-02-04T06:34:27;10.23;;;6.73;;
76123;SDS011;65173;48.066;20.976;2024-02-04T06:37:30;15.85;;;7.53;;
76123;SDS011;65173;48.066;20.976;2024-02-04T06:40:32;15.45;;;7.78;;
76123;SDS011;65173;48.066;20.976;2024-02-04T06:43:36;19.00;;;9.95;;
76123;SDS011;65173;48.066;20.976;2024-02-04T06:46:38;14.25;;;7.70;;
76123;SDS011;65173;48.066;20.976;2024-02-04T06:49:44;18.10;;;9.82;;
76123;SDS011;65173;48.066;20.976;2024-02-04T06:52:47;19.02;;;8.40;;
76123;SDS011;65173;48.066;20.976;2024-02-04T06:55:50;14.23;;;7.57;;
76123;SDS011;65173;48.066;20.976;2024-02-04T06:58:52;13.55;;;7.75;;
76123;SDS011;65173;48.066;20.976;2024-02-04T07:01:57;16.42;;;8.95;;
76123;SDS011;65173;48.066;20.976;2024-02-04T07:04:59;23.63;;;10.53;;
76123;SDS011;65173;48.066;20.976;2024-02-04T07:08:01;16.27;;;7.57;;
76123;SDS011;65173;48.066;20.976;2024-02-04T07:11:03;9.93;;;5.82;;
76123;SDS011;65173;48.066;20.976;2024-02-04T07:14:06;13.15;;;6.25;;
76123;SDS011;65173;48.066;20.976;2024-02-04T07:17:08;8.48;;;4.38;;
76123;SDS011;65173;48.066;20.976;2024-02-04T07:20:10;10.70;;;6.40;;
76123;SDS011;65173;48.066;20.976;2024-02-04T07:23:12;9.30;;;6.60;;
76123;SDS011;65173;48.066;20.976;2024-02-04T07:26:14;5.80;;;3.60;;
76123;SDS011;65173;48.066;20.976;2024-02-04T07:29:17;10.40;;;6.63;;
76123;SDS011;65173;48.066;20.976;2024-02-04T07:32:19;11.85;;;4.43;;
76123;SDS011;65173;48.066;20.976;2024-02-04T07:35:21;4.83;;;3.90;;
76123;SDS011;65173;48.066;20.976;2024-02-04T07:38:23;5.88;;;4.05;;
76123;SDS011;65173;48.066;20.976;2024-02-04T07:41:26;11.65;;;7.15;;
76123;SDS011;65173;48.066;20.976;2024-02-04T07:44:28;10.65;;;5.25;;
76123;SDS011;65173;48.066;20.976;2024-02-04T07:47:30;9.18;;;5.13;;
76123;SDS011;65173;48.066;20.976;2024-02-04T07:50:33;7.32;;;5.60;;
76123;SDS011;65173;48.066;20.976;2024-02-04T07:53:35;14.88;;;6.13;;
76123;SDS011;65173;48.066;20.976;2024-02-04T07:56:38;45.23;;;17.17;;
76123;SDS011;65173;48.066;20.976;2024-02-04T07:59:40;27.98;;;12.40;;
76123;SDS011;65173;48.066;20.976;2024-02-04T08:02:44;17.15;;;8.27;;
76123;SDS011;65173;48.066;20.976;2024-02-04T08:05:46;5.53;;;3.77;;
76123;SDS011;65173;48.066;20.976;2024-02-04T08:08:48;24.05;;;12.15;;
76123;SDS011;65173;48.066;20.976;2024-02-04T08:11:53;20.45;;;8.88;;
76123;SDS011;65173;48.066;20.976;2024-02-04T08:14:57;9.95;;;7.35;;
76123;SDS011;65173;48.066;20.976;2024-02-04T08:18:00;8.75;;;6.05;;
76123;SDS011;65173;48.066;20.976;2024-02-04T08:21:06;8.70;;;5.78;;
76123;SDS011;65173;48.066;20.976;2024-02-04T08:24:09;11.07;;;7.82;;
76123;SDS011;65173;48.066;20.976;2024-02-04T08:27:11;120.33;;;39.90;;
76123;SDS011;65173;48.066;20.976;2024-02-04T08:30:13;32.53;;;15.75;;
76123;SDS011;65173;48.066;20.976;2024-02-04T08:33:16;15.18;;;6.35;;
76123;SDS011;65173;48.066;20.976;2024-02-04T08:36:18;9.07;;;5.40;;
76123;SDS011;65173;48.066;20.976;2024-02-04T08:39:20;8.25;;;5.10;;
76123;SDS011;65173;48.066;20.976;2024-02-04T08:42:23;7.80;;;3.75;;
76123;SDS011;65173;48.066;20.976;2024-02-04T08:45:30;9.88;;;4.50;;
76123;SDS011;65173;48.066;20.976;2024-02-04T08:48:33;6.75;;;3.25;;
76123;SDS011;65173;48.066;20.976;2024-02-04T08:51:35;5.43;;;3.30;;
76123;SDS011;65173;48.066;20.976;2024-02-04T08:54:37;9.60;;;4.10;;
76123;SDS011;65173;48.066;20.976;2024-02-04T08:57:40;5.33;;;2.63;;
76123;SDS011;65173;48.066;20.976;2024-02-04T09:00:42;3.90;;;2.60;;
76123;SDS011;65173;48.066;20.976;2024-02-04T09:03:44;6.50;;;3.40;;
76123;SDS011;65173;48.066;20.976;2024-02-04T09:06:47;2.30;;;1.90;;
76123;SDS011;65173;48.066;20.976;2024-02-04T09:09:49;4.85;;;3.33;;
76123;SDS011;65173;48.066;20.976;2024-02-04T09:12:51;4.47;;;3.35;;
76123;SDS011;65173;48.066;20.976;2024-02-04T09:15:53;7.03;;;4.38;;
76123;SDS011;65173;48.066;20.976;2024-02-04T09:18:56;6.72;;;4.20;;
76123;SDS011;65173;48.066;20.976;2024-02-04T09:21:58;5.15;;;3.67;;
76123;SDS011;65173;48.066;20.976;2024-02-04T09:25:03;6.22;;;3.95;;
76123;SDS011;65173;48.066;20.976;2024-02-04T09:28:06;3.97;;;2.07;;
76123;SDS011;65173;48.066;20.976;2024-02-04T09:31:08;4.35;;;1.98;;
76123;SDS011;65173;48.066;20.976;2024-02-04T09:34:11;2.83;;;1.77;;
76123;SDS011;65173;48.066;20.976;2024-02-04T09:37:14;3.00;;;1.87;;
76123;SDS011;65173;48.066;20.976;2024-02-04T09:40:17;2.03;;;1.42;;
76123;SDS011;65173;48.066;20.976;2024-02-04T09:43:19;0.98;;;0.88;;
76123;SDS011;65173;48.066;20.976;2024-02-04T09:46:22;2.72;;;2.45;;
76123;SDS011;65173;48.066;20.976;2024-02-04T09:49:26;2.92;;;1.90;;
76123;SDS011;65173;48.066;20.976;2024-02-04T09:52:29;1.30;;;1.20;;
76123;SDS011;65173;48.066;20.976;2024-02-04T09:55:35;1.15;;;1.15;;
76123;SDS011;65173;48.066;20.976;2024-02-04T09:58:39;2.00;;;0.73;;
76123;SDS011;65173;48.066;20.976;2024-02-04T10:01:42;0.65;;;0.65;;
76123;SDS011;65173;48.066;20.976;2024-02-04T10:04:45;1.73;;;1.02;;
76123;SDS011;65173;48.066;20.976;2024-02-04T10:07:47;0.70;;;0.70;;
76123;SDS011;65173;48.066;20.976;2024-02-04T10:10:50;0.70;;;0.63;;
76123;SDS011;65173;48.066;20.976;2024-02-04T10:13:52;1.35;;;1.25;;
76123;SDS011;65173;48.066;20.976;2024-02-04T10:16:55;1.30;;;0.88;;
76123;SDS011;65173;48.066;20.976;2024-02-04T10:19:57;3.58;;;1.92;;
76123;SDS011;65173;48.066;20.976;2024-02-04T10:23:00;0.80;;;0.80;;
76123;SDS011;65173;48.066;20.976;2024-02-04T10:26:02;2.58;;;1.38;;
76123;SDS011;65173;48.066;20.976;2024-02-04T10:29:08;4.80;;;1.73;;
76123;SDS011;65173;48.066;20.976;2024-02-04T10:32:13;0.40;;;0.40;;
76123;SDS011;65173;48.066;20.976;2024-02-04T10:35:23;0.82;;;0.82;;
76123;SDS011;65173;48.066;20.976;2024-02-04T10:38:34;0.80;;;0.80;;
76123;SDS011;65173;48.066;20.976;2024-02-04T10:41:37;1.15;;;0.90;;
76123;SDS011;65173;48.066;20.976;2024-02-04T10:44:42;1.25;;;0.73;;
76123;SDS011;65173;48.066;20.976;2024-02-04T10:47:55;1.05;;;0.93;;
76123;SDS011;65173;48.066;20.976;2024-02-04T10:50:59;1.75;;;1.40;;
76123;SDS011;65173;48.066;20.976;2024-02-04T10:54:02;1.15;;;0.68;;
76123;SDS011;65173;48.066;20.976;2024-02-04T10:57:05;4.30;;;1.20;;
76123;SDS011;65173;48.066;20.976;2024-02-04T11:00:11;1.23;;;0.93;;
76123;SDS011;65173;48.066;20.976;2024-02-04T11:03:20;1.15;;;0.70;;
76123;SDS011;65173;48.066;20.976;2024-02-04T11:06:25;1.98;;;1.60;;
76123;SDS011;65173;48.066;20.976;2024-02-04T11:09:28;1.57;;;1.47;;
76123;SDS011;65173;48.066;20.976;2024-02-04T11:12:31;0.63;;;0.63;;
76123;SDS011;65173;48.066;20.976;2024-02-04T11:15:35;3.40;;;1.60;;
76123;SDS011;65173;48.066;20.976;2024-02-04T11:18:44;2.65;;;1.85;;
76123;SDS011;65173;48.066;20.976;2024-02-04T11:25:06;2.15;;;0.80;;
76123;SDS011;65173;48.066;20.976;2024-02-04T11:28:12;1.63;;;0.88;;
76123;SDS011;65173;48.066;20.976;2024-02-04T11:31:18;2.00;;;0.63;;
76123;SDS011;65173;48.066;20.976;2024-02-04T11:34:20;1.90;;;1.20;;
76123;SDS011;65173;48.066;20.976;2024-02-04T11:37:23;3.00;;;1.13;;
76123;SDS011;65173;48.066;20.976;2024-02-04T11:40:31;2.33;;;1.10;;
76123;SDS011;65173;48.066;20.976;2024-02-04T11:43:34;1.95;;;0.90;;
76123;SDS011;65173;48.066;20.976;2024-02-04T11:46:45;1.20;;;0.60;;
76123;SDS011;65173;48.066;20.976;2024-02-04T11:49:53;0.65;;;0.40;;
76123;SDS011;65173;48.066;20.976;2024-02-04T11:53:08;1.80;;;1.50;;
76123;SDS011;65173;48.066;20.976;2024-02-04T11:56:11;1.33;;;1.10;;
76123;SDS011;65173;48.066;20.976;2024-02-04T11:59:14;1.63;;;0.80;;
76123;SDS011;65173;48.066;20.976;2024-02-04T12:02:16;1.20;;;0.60;;
76123;SDS011;65173;48.066;20.976;2024-02-04T12:05:19;4.07;;;1.15;;
76123;SDS011;65173;48.066;20.976;2024-02-04T12:08:22;2.10;;;1.08;;
76123;SDS011;65173;48.066;20.976;2024-02-04T12:11:25;1.20;;;0.73;;
76123;SDS011;65173;48.066;20.976;2024-02-04T12:14:27;3.70;;;2.38;;
76123;SDS011;65173;48.066;20.976;2024-02-04T12:17:31;4.82;;;2.30;;
76123;SDS011;65173;48.066;20.976;2024-02-04T12:20:35;3.13;;;1.35;;
76123;SDS011;65173;48.066;20.976;2024-02-04T12:23:37;1.05;;;0.98;;
76123;SDS011;65173;48.066;20.976;2024-02-04T12:26:39;0.70;;;0.50;;
76123;SDS011;65173;48.066;20.976;2024-02-04T12:29:42;0.82;;;0.40;;
76123;SDS011;65173;48.066;20.976;2024-02-04T12:32:44;1.83;;;1.60;;
76123;SDS011;65173;48.066;20.976;2024-02-04T12:35:50;3.47;;;1.75;;
76123;SDS011;65173;48.066;20.976;2024-02-04T12:38:56;3.10;;;1.65;;
76123;SDS011;65173;48.066;20.976;2024-02-04T12:41:59;2.00;;;0.50;;
76123;SDS011;65173;48.066;20.976;2024-02-04T12:45:01;4.43;;;1.80;;
76123;SDS011;65173;48.066;20.976;2024-02-04T12:48:04;1.23;;;0.88;;
76123;SDS011;65173;48.066;20.976;2024-02-04T12:51:06;4.40;;;2.28;;
76123;SDS011;65173;48.066;20.976;2024-02-04T12:54:09;1.88;;;1.42;;
76123;SDS011;65173;48.066;20.976;2024-02-04T12:57:22;1.60;;;1.33;;
76123;SDS011;65173;48.066;20.976;2024-02-04T13:00:25;2.83;;;1.95;;
76123;SDS011;65173;48.066;20.976;2024-02-04T13:03:28;1.20;;;1.03;;
76123;SDS011;65173;48.066;20.976;2024-02-04T13:06:30;3.72;;;1.75;;
76123;SDS011;65173;48.066;20.976;2024-02-04T13:09:33;4.15;;;2.38;;
76123;SDS011;65173;48.066;20.976;2024-02-04T13:12:35;1.53;;;1.20;;
76123;SDS011;65173;48.066;20.976;2024-02-04T13:15:42;4.40;;;2.45;;
76123;SDS011;65173;48.066;20.976;2024-02-04T13:18:52;1.35;;;0.80;;
76123;SDS011;65173;48.066;20.976;2024-02-04T13:21:55;0.68;;;0.63;;
76123;SDS011;65173;48.066;20.976;2024-02-04T13:24:58;1.58;;;0.50;;
76123;SDS011;65173;48.066;20.976;2024-02-04T13:28:00;5.47;;;3.00;;
76123;SDS011;65173;48.066;20.976;2024-02-04T13:31:02;2.75;;;1.50;;
76123;SDS011;65173;48.066;20.976;2024-02-04T13:34:05;3.13;;;1.30;;
76123;SDS011;65173;48.066;20.976;2024-02-04T13:37:07;1.15;;;1.00;;
76123;SDS011;65173;48.066;20.976;2024-02-04T13:40:10;3.70;;;2.10;;
76123;SDS011;65173;48.066;20.976;2024-02-04T13:43:12;9.23;;;4.00;;
76123;SDS011;65173;48.066;20.976;2024-02-04T13:46:14;9.38;;;4.28;;
76123;SDS011;65173;48.066;20.976;2024-02-04T13:49:17;17.98;;;6.30;;
76123;SDS011;65173;48.066;20.976;2024-02-04T13:52:19;12.90;;;5.32;;
76123;SDS011;65173;48.066;20.976;2024-02-04T13:55:22;5.57;;;3.33;;
76123;SDS011;65173;48.066;20.976;2024-02-04T13:58:24;2.95;;;1.60;;
76123;SDS011;65173;48.066;20.976;2024-02-04T14:01:27;6.05;;;3.55;;
76123;SDS011;65173;48.066;20.976;2024-02-04T14:04:29;7.10;;;3.80;;
76123;SDS011;65173;48.066;20.976;2024-02-04T14:07:32;4.88;;;2.38;;
76123;SDS011;65173;48.066;20.976;2024-02-04T14:10:34;12.10;;;4.35;;
76123;SDS011;65173;48.066;20.976;2024-02-04T14:13:36;8.17;;;3.40;;
76123;SDS011;65173;48.066;20.976;2024-02-04T14:16:38;8.43;;;2.78;;
76123;SDS011;65173;48.066;20.976;2024-02-04T14:19:41;8.65;;;2.13;;
76123;SDS011;65173;48.066;20.976;2024-02-04T14:22:44;33.83;;;12.55;;
76123;SDS011;65173;48.066;20.976;2024-02-04T14:25:47;7.85;;;3.25;;
76123;SDS011;65173;48.066;20.976;2024-02-04T14:28:49;3.38;;;1.70;;
76123;SDS011;65173;48.066;20.976;2024-02-04T14:31:52;30.15;;;11.45;;
76123;SDS011;65173;48.066;20.976;2024-02-04T14:34:54;5.60;;;2.03;;
76123;SDS011;65173;48.066;20.976;2024-02-04T14:37:57;23.23;;;9.75;;
76123;SDS011;65173;48.066;20.976;2024-02-04T14:40:59;8.13;;;4.40;;
76123;SDS011;65173;48.066;20.976;2024-02-04T14:44:02;8.07;;;3.07;;
76123;SDS011;65173;48.066;20.976;2024-02-04T14:47:04;16.52;;;5.82;;
76123;SDS011;65173;48.066;20.976;2024-02-04T14:50:08;17.40;;;6.93;;
76123;SDS011;65173;48.066;20.976;2024-02-04T14:53:10;21.20;;;6.38;;
76123;SDS011;65173;48.066;20.976;2024-02-04T14:56:13;43.28;;;10.93;;
76123;SDS011;65173;48.066;20.976;2024-02-04T14:59:16;18.48;;;5.43;;
76123;SDS011;65173;48.066;20.976;2024-02-04T15:02:24;1.55;;;1.30;;
76123;SDS011;65173;48.066;20.976;2024-02-04T15:05:26;6.60;;;3.60;;
76123;SDS011;65173;48.066;20.976;2024-02-04T15:08:29;5.88;;;2.75;;
76123;SDS011;65173;48.066;20.976;2024-02-04T15:11:32;5.80;;;2.50;;
76123;SDS011;65173;48.066;20.976;2024-02-04T15:14:36;3.40;;;1.90;;
76123;SDS011;65173;48.066;20.976;2024-02-04T15:17:38;2.35;;;0.93;;
76123;SDS011;65173;48.066;20.976;2024-02-04T15:20:44;7.45;;;2.58;;
76123;SDS011;65173;48.066;20.976;2024-02-04T15:23:46;3.67;;;1.38;;
76123;SDS011;65173;48.066;20.976;2024-02-04T15:26:49;0.22;;;0.22;;
76123;SDS011;65173;48.066;20.976;2024-02-04T15:29:54;0.85;;;0.22;;
76123;SDS011;65173;48.066;20.976;2024-02-04T15:32:57;0.80;;;0.45;;
76123;SDS011;65173;48.066;20.976;2024-02-04T15:36:00;10.50;;;3.17;;
76123;SDS011;65173;48.066;20.976;2024-02-04T15:39:02;1.45;;;0.38;;
76123;SDS011;65173;48.066;20.976;2024-02-04T15:42:05;0.95;;;0.45;;
76123;SDS011;65173;48.066;20.976;2024-02-04T15:45:08;0.90;;;0.50;;
76123;SDS011;65173;48.066;20.976;2024-02-04T15:48:10;1.17;;;0.82;;
76123;SDS011;65173;48.066;20.976;2024-02-04T15:51:17;0.82;;;0.50;;
76123;SDS011;65173;48.066;20.976;2024-02-04T15:54:19;3.17;;;1.85;;
76123;SDS011;65173;48.066;20.976;2024-02-04T15:57:22;4.38;;;2.22;;
76123;SDS011;65173;48.066;20.976;2024-02-04T16:00:27;1.15;;;0.85;;
76123;SDS011;65173;48.066;20.976;2024-02-04T16:03:30;2.42;;;1.40;;
76123;SDS011;65173;48.066;20.976;2024-02-04T16:06:34;1.83;;;1.17;;
76123;SDS011;65173;48.066;20.976;2024-02-04T16:09:37;2.85;;;2.00;;
76123;SDS011;65173;48.066;20.976;2024-02-04T16:12:53;8.13;;;3.53;;
76123;SDS011;65173;48.066;20.976;2024-02-04T16:15:55;2.30;;;1.20;;
76123;SDS011;65173;48.066;20.976;2024-02-04T16:19:02;1.27;;;0.68;;
76123;SDS011;65173;48.066;20.976;2024-02-04T16:22:07;2.58;;;1.30;;
76123;SDS011;65173;48.066;20.976;2024-02-04T16:25:09;2.10;;;1.25;;
76123;SDS011;65173;48.066;20.976;2024-02-04T16:28:12;2.00;;;1.13;;
76123;SDS011;65173;48.066;20.976;2024-02-04T16:31:15;2.38;;;1.67;;
76123;SDS011;65173;48.066;20.976;2024-02-04T16:34:17;2.50;;;1.50;;
76123;SDS011;65173;48.066;20.976;2024-02-04T16:37:20;0.90;;;0.83;;
76123;SDS011;65173;48.066;20.976;2024-02-04T16:40:22;7.18;;;1.15;;
76123;SDS011;65173;48.066;20.976;2024-02-04T16:43:25;3.00;;;1.20;;
76123;SDS011;65173;48.066;20.976;2024-02-04T16:46:28;1.83;;;0.80;;
76123;SDS011;65173;48.066;20.976;2024-02-04T16:49:30;1.45;;;0.75;;
76123;SDS011;65173;48.066;20.976;2024-02-04T16:52:33;5.07;;;1.55;;
76123;SDS011;65173;48.066;20.976;2024-02-04T16:55:35;1.40;;;0.95;;
76123;SDS011;65173;48.066;20.976;2024-02-04T16:58:37;4.07;;;2.72;;
76123;SDS011;65173;48.066;20.976;2024-02-04T17:01:40;7.00;;;3.80;;
76123;SDS011;65173;48.066;20.976;2024-02-04T17:04:42;3.88;;;2.85;;
76123;SDS011;65173;48.066;20.976;2024-02-04T17:07:45;45.87;;;17.83;;
76123;SDS011;65173;48.066;20.976;2024-02-04T17:10:48;20.27;;;7.97;;
76123;SDS011;65173;48.066;20.976;2024-02-04T17:13:51;5.72;;;3.25;;
76123;SDS011;65173;48.066;20.976;2024-02-04T17:23:09;9.52;;;4.30;;
76123;SDS011;65173;48.066;20.976;2024-02-04T17:26:14;8.38;;;4.80;;
76123;SDS011;65173;48.066;20.976;2024-02-04T17:29:21;7.68;;;3.78;;
76123;SDS011;65173;48.066;20.976;2024-02-04T17:32:24;7.45;;;5.18;;
76123;SDS011;65173;48.066;20.976;2024-02-04T17:35:28;2.90;;;1.60;;
76123;SDS011;65173;48.066;20.976;2024-02-04T17:38:31;6.50;;;2.33;;
76123;SDS011;65173;48.066;20.976;2024-02-04T17:41:34;6.93;;;4.05;;
76123;SDS011;65173;48.066;20.976;2024-02-04T17:44:37;1.23;;;0.98;;
76123;SDS011;65173;48.066;20.976;2024-02-04T17:47:40;3.03;;;1.53;;
76123;SDS011;65173;48.066;20.976;2024-02-04T17:50:44;9.30;;;1.67;;
76123;SDS011;65173;48.066;20.976;2024-02-04T17:53:46;5.78;;;1.70;;
76123;SDS011;65173;48.066;20.976;2024-02-04T17:56:52;1.45;;;0.70;;
76123;SDS011;65173;48.066;20.976;2024-02-04T17:59:55;2.15;;;1.17;;
76123;SDS011;65173;48.066;20.976;2024-02-04T18:02:58;0.85;;;0.80;;
76123;SDS011;65173;48.066;20.976;2024-02-04T18:06:01;1.08;;;0.73;;
76123;SDS011;65173;48.066;20.976;2024-02-04T18:09:06;3.00;;;1.10;;
76123;SDS011;65173;48.066;20.976;2024-02-04T18:12:08;2.40;;;0.80;;
76123;SDS011;65173;48.066;20.976;2024-02-04T18:15:11;0.73;;;0.52;;